createdAt,value
2022-12-18T00:01:27.139Z,102863.13
2022-12-18T00:03:56.230Z,102866.44
2022-12-18T00:06:25.959Z,102872.53
2022-12-18T00:08:53.997Z,102862.22
2022-12-18T00:11:24.389Z,102859.50
2022-12-18T00:13:52.280Z,102863.47
2022-12-18T00:16:21.995Z,102867.41
2022-12-18T00:18:50.594Z,102861.97
2022-12-18T00:21:17.949Z,102859.28
2022-12-18T00:23:46.024Z,102866.22
2022-12-18T00:26:16.862Z,102865.16
2022-12-18T00:28:44.685Z,102861.41
2022-12-18T00:31:16.420Z,102856.25
2022-12-18T00:33:44.412Z,102861.25
2022-12-18T00:36:18.890Z,102862.16
2022-12-18T00:38:47.305Z,102867.19
2022-12-18T00:41:36.680Z,102868.06
2022-12-18T00:44:07.450Z,102865.50
2022-12-18T00:46:34.817Z,102855.03
2022-12-18T00:49:02.579Z,102870.50
2022-12-18T00:51:29.843Z,102867.03
2022-12-18T00:53:57.301Z,102865.34
2022-12-18T00:56:25.358Z,102868.69
2022-12-18T00:58:53.936Z,102853.41
2022-12-18T01:01:21.522Z,102866.72
2022-12-18T01:03:49.395Z,102868.72
2022-12-18T01:06:18.180Z,102874.50
2022-12-18T01:08:45.790Z,102871.78
2022-12-18T01:11:19.973Z,102876.63
2022-12-18T01:13:47.415Z,102872.25
2022-12-18T01:16:17.280Z,102880.72
2022-12-18T01:18:44.746Z,102881.50
2022-12-18T01:21:17.258Z,102883.78
2022-12-18T01:23:44.608Z,102883.47
2022-12-18T01:26:15.727Z,102880.63
2022-12-18T01:28:44.711Z,102883.94
2022-12-18T01:31:18.212Z,102899.38
2022-12-18T01:33:46.482Z,102915.75
2022-12-18T01:36:17.534Z,102916.66
2022-12-18T01:38:45.556Z,102908.03
2022-12-18T01:41:12.996Z,102911.34
2022-12-18T01:43:51.101Z,102916.50
2022-12-18T01:46:21.477Z,102911.06
2022-12-18T01:48:58.836Z,102901.38
2022-12-18T01:51:30.045Z,102894.41
2022-12-18T01:53:58.712Z,102896.69
2022-12-18T01:56:26.132Z,102900.03
2022-12-18T01:59:02.557Z,102895.50
2022-12-18T02:01:32.417Z,102906.41
2022-12-18T02:04:21.863Z,102916.41
2022-12-18T02:06:55.765Z,102915.50
2022-12-18T02:09:33.285Z,102923.97
2022-12-18T02:12:03.918Z,102932.59
2022-12-18T02:14:31.178Z,102926.53
2022-12-18T02:17:10.571Z,102925.63
2022-12-18T02:20:03.992Z,102930.63
2022-12-18T02:22:38.999Z,102914.28
2022-12-18T02:25:43.784Z,102912.47
2022-12-18T02:28:16.654Z,102914.75
2022-12-18T02:30:48.790Z,102904.16
2022-12-18T02:33:17.925Z,102909.00
2022-12-18T02:35:46.910Z,102916.44
2022-12-18T02:38:16.567Z,102913.22
2022-12-18T02:40:47.467Z,102904.34
2022-12-18T02:43:17.805Z,102903.13
2022-12-18T02:45:52.922Z,102907.34
2022-12-18T02:48:25.760Z,102900.41
2022-12-18T02:51:15.088Z,102890.84
2022-12-18T02:53:51.407Z,102887.22
2022-12-18T02:56:29.486Z,102894.34
2022-12-18T02:59:04.647Z,102907.06
2022-12-18T03:02:10.806Z,102909.78
2022-12-18T03:04:51.126Z,102906.59
2022-12-18T03:07:35.889Z,102911.91
2022-12-18T03:10:06.473Z,102907.97
2022-12-18T03:12:39.021Z,102907.34
2022-12-18T03:15:20.956Z,102917.00
2022-12-18T03:18:03.885Z,102914.91
2022-12-18T03:20:35.310Z,102919.16
2022-12-18T03:23:10.504Z,102921.72
2022-12-18T03:25:43.527Z,102920.81
2022-12-18T03:28:20.829Z,102911.28
2022-12-18T03:30:52.800Z,102917.03
2022-12-18T03:33:39.447Z,102911.59
2022-12-18T03:36:07.518Z,102899.50
2022-12-18T03:38:34.922Z,102899.19
2022-12-18T03:41:21.154Z,102895.25
2022-12-18T03:44:54.995Z,102882.69
2022-12-18T03:47:35.922Z,102881.34
2022-12-18T03:50:12.460Z,102884.34
2022-12-18T03:52:55.989Z,102887.38
2022-12-18T03:55:27.249Z,102887.22
2022-12-18T03:58:02.665Z,102895.56
2022-12-18T04:00:40.648Z,102881.47
2022-12-18T04:03:13.894Z,102886.47
2022-12-18T04:05:52.359Z,102889.50
2022-12-18T04:08:23.407Z,102884.97
2022-12-18T04:11:03.272Z,102888.91
2022-12-18T04:13:36.638Z,102892.81
2022-12-18T04:16:08.086Z,102894.31
2022-12-18T04:18:36.030Z,102886.31
2022-12-18T04:21:03.887Z,102898.09
2022-12-18T04:23:34.053Z,102900.22
2022-12-18T04:26:02.529Z,102899.88
2022-12-18T04:28:58.209Z,102907.00
2022-12-18T04:31:25.776Z,102902.44
2022-12-18T04:33:53.718Z,102908.34
2022-12-18T04:36:21.536Z,102902.72
2022-12-18T04:38:48.999Z,102912.88
2022-12-18T04:41:19.006Z,102905.72
2022-12-18T04:43:48.627Z,102901.19
2022-12-18T04:46:15.981Z,102906.34
2022-12-18T04:48:43.241Z,102905.44
2022-12-18T04:51:10.786Z,102903.31
2022-12-18T04:53:39.987Z,102903.16
2022-12-18T04:56:12.460Z,102900.25
2022-12-18T04:58:41.682Z,102896.63
2022-12-18T05:01:09.399Z,102890.44
2022-12-18T05:03:38.114Z,102900.53
2022-12-18T05:06:07.774Z,102897.81
2022-12-18T05:08:35.142Z,102900.22
2022-12-18T05:11:16.623Z,102896.59
2022-12-18T05:13:45.472Z,102905.81
2022-12-18T05:16:14.228Z,102910.78
2022-12-18T05:18:41.897Z,102921.81
2022-12-18T05:21:09.383Z,102919.88
2022-12-18T05:23:37.211Z,102918.06
2022-12-18T05:26:07.093Z,102917.00
2022-12-18T05:28:36.067Z,102916.81
2022-12-18T05:31:05.555Z,102916.53
2022-12-18T05:33:35.139Z,102917.25
2022-12-18T05:36:07.060Z,102917.09
2022-12-18T05:38:37.064Z,102924.06
2022-12-18T05:41:05.776Z,102916.94
2022-12-18T05:43:36.863Z,102917.72
2022-12-18T05:46:13.205Z,102919.78
2022-12-18T05:48:40.844Z,102913.41
2022-12-18T05:51:10.882Z,102927.03
2022-12-18T05:53:39.139Z,102920.81
2022-12-18T05:56:10.102Z,102926.69
2022-12-18T05:58:38.267Z,102927.44
2022-12-18T06:01:14.655Z,102936.06
2022-12-18T06:03:42.691Z,102935.16
2022-12-18T06:06:18.354Z,102933.66
2022-12-18T06:08:46.617Z,102948.16
2022-12-18T06:11:17.277Z,102954.75
2022-12-18T06:13:44.720Z,102962.31
2022-12-18T06:16:12.049Z,102958.69
2022-12-18T06:18:39.573Z,102956.13
2022-12-18T06:21:07.138Z,102963.81
2022-12-18T06:23:34.461Z,102963.66
2022-12-18T06:26:06.772Z,102967.72
2022-12-18T06:28:34.358Z,102970.09
2022-12-18T06:31:01.879Z,102970.69
2022-12-18T06:33:29.189Z,102972.19
2022-12-18T06:36:02.733Z,102971.09
2022-12-18T06:38:30.034Z,102964.19
2022-12-18T06:40:57.875Z,102955.41
2022-12-18T06:43:25.656Z,102949.94
2022-12-18T06:45:59.884Z,102951.44
2022-12-18T06:48:27.471Z,102936.66
2022-12-18T06:50:54.797Z,102936.66
2022-12-18T06:53:22.235Z,102939.94
2022-12-18T06:55:50.018Z,102939.94
2022-12-18T06:58:17.244Z,102938.88
2022-12-18T07:00:44.668Z,102926.06
2022-12-18T07:03:13.270Z,102930.13
2022-12-18T07:05:41.953Z,102929.34
2022-12-18T07:08:09.430Z,102930.13
2022-12-18T07:10:46.960Z,102932.50
2022-12-18T07:13:19.563Z,102926.47
2022-12-18T07:15:46.896Z,102929.78
2022-12-18T07:18:14.157Z,102929.06
2022-12-18T07:20:41.849Z,102921.34
2022-12-18T07:23:09.207Z,102921.34
2022-12-18T07:25:38.011Z,102918.03
2022-12-18T07:28:05.693Z,102919.53
2022-12-18T07:30:32.994Z,102916.78
2022-12-18T07:33:00.196Z,102912.59
2022-12-18T07:35:27.455Z,102910.94
2022-12-18T07:37:54.717Z,102913.31
2022-12-18T07:40:21.983Z,102909.25
2022-12-18T07:42:49.371Z,102917.72
2022-12-18T07:45:16.785Z,102915.31
2022-12-18T07:47:44.266Z,102919.53
2022-12-18T07:50:12.817Z,102924.81
2022-12-18T07:52:40.098Z,102923.16
2022-12-18T07:55:07.735Z,102917.13
2022-12-18T07:57:50.223Z,102914.72
2022-12-18T08:00:18.461Z,102918.38
2022-12-18T08:02:45.855Z,102916.13
2022-12-18T08:05:14.378Z,102930.75
2022-12-18T08:07:41.605Z,102929.25
2022-12-18T08:10:09.506Z,102927.75
2022-12-18T08:12:36.744Z,102921.72
2022-12-18T08:15:05.490Z,102916.59
2022-12-18T08:17:34.062Z,102925.34
2022-12-18T08:20:02.161Z,102925.53
2022-12-18T08:22:29.404Z,102920.56
2022-12-18T08:24:56.708Z,102923.13
2022-12-18T08:27:31.217Z,102937.03
2022-12-18T08:29:58.729Z,102934.75
2022-12-18T08:32:27.505Z,102938.56
2022-12-18T08:34:54.836Z,102932.69
2022-12-18T08:37:22.095Z,102932.84
2022-12-18T08:39:49.597Z,102922.16
2022-12-18T08:42:35.756Z,102919.00
2022-12-18T08:45:04.533Z,102920.97
2022-12-18T08:47:31.798Z,102920.72
2022-12-18T08:49:59.092Z,102909.22
2022-12-18T08:52:26.561Z,102921.66
2022-12-18T08:54:54.020Z,102913.53
2022-12-18T08:57:21.354Z,102919.88
2022-12-18T08:59:49.361Z,102925.28
2022-12-18T09:02:16.755Z,102923.78
2022-12-18T09:04:46.405Z,102921.88
2022-12-18T09:07:14.163Z,102929.69
2022-12-18T09:09:41.375Z,102934.56
2022-12-18T09:12:10.287Z,102940.19
2022-12-18T09:14:37.729Z,102942.63
2022-12-18T09:17:05.351Z,102941.56
2022-12-18T09:19:32.727Z,102943.84
2022-12-18T09:22:01.744Z,102939.94
2022-12-18T09:24:29.043Z,102943.72
2022-12-18T09:26:58.051Z,102937.41
2022-12-18T09:29:25.635Z,102933.63
2022-12-18T09:31:52.926Z,102938.19
2022-12-18T09:34:23.222Z,102946.16
2022-12-18T09:36:51.293Z,102941.50
2022-12-18T09:39:18.602Z,102942.84
2022-12-18T09:41:58.366Z,102933.97
2022-12-18T09:44:44.450Z,102928.53
2022-12-18T09:47:29.251Z,102911.28
2022-12-18T09:50:00.884Z,102903.09
2022-12-18T09:52:34.404Z,102912.81
2022-12-18T09:55:10.499Z,102911.28
2022-12-18T09:57:43.875Z,102912.50
2022-12-18T10:00:21.925Z,102900.25
2022-12-18T10:02:52.067Z,102908.13
2022-12-18T10:05:37.720Z,102903.56
2022-12-18T10:08:17.248Z,102902.50
2022-12-18T10:10:55.800Z,102905.53
2022-12-18T10:13:43.082Z,102891.59
2022-12-18T10:16:14.308Z,102890.66
2022-12-18T10:19:08.266Z,102893.34
2022-12-18T10:21:57.459Z,102893.66
2022-12-18T10:24:32.192Z,102899.78
2022-12-18T10:27:11.822Z,102891.16
2022-12-18T10:29:39.418Z,102896.41
2022-12-18T10:32:08.492Z,102885.94
2022-12-18T10:34:36.215Z,102885.91
2022-12-18T10:37:14.113Z,102877.19
2022-12-18T10:39:41.358Z,102877.13
2022-12-18T10:42:14.179Z,102879.38
2022-12-18T10:44:41.993Z,102875.84
2022-12-18T10:47:16.324Z,102881.28
2022-12-18T10:49:50.783Z,102865.06
2022-12-18T10:52:26.794Z,102863.38
2022-12-18T10:55:05.699Z,102853.06
2022-12-18T10:57:40.180Z,102846.38
2022-12-18T11:00:24.566Z,102841.22
2022-12-18T11:02:53.002Z,102837.00
2022-12-18T11:05:32.674Z,102830.81
2022-12-18T11:08:01.795Z,102825.75
2022-12-18T11:10:38.970Z,102817.41
2022-12-18T11:13:25.022Z,102805.28
2022-12-18T11:15:53.162Z,102801.66
2022-12-18T11:18:31.100Z,102799.38
2022-12-18T11:21:25.814Z,102796.00
2022-12-18T11:23:54.809Z,102804.94
2022-12-18T11:26:34.291Z,102803.41
2022-12-18T11:29:17.997Z,102784.84
2022-12-18T11:31:45.690Z,102776.66
2022-12-18T11:34:30.892Z,102773.59
2022-12-18T11:37:00.752Z,102778.25
2022-12-18T11:39:41.696Z,102787.91
2022-12-18T11:42:14.800Z,102795.50
2022-12-18T11:44:51.102Z,102792.19
2022-12-18T11:47:27.934Z,102798.50
2022-12-18T11:49:58.010Z,102798.16
2022-12-18T11:52:32.776Z,102795.22
2022-12-18T11:55:02.376Z,102792.00
2022-12-18T11:57:48.726Z,102785.88
2022-12-18T12:00:23.669Z,102772.59
2022-12-18T12:03:18.420Z,102755.69
2022-12-18T12:05:46.702Z,102756.75
2022-12-18T12:09:06.907Z,102748.66
2022-12-18T12:12:09.879Z,102742.06
2022-12-18T12:14:49.224Z,102740.53
2022-12-18T12:17:46.035Z,102738.06
2022-12-18T12:20:36.621Z,102731.34
2022-12-18T12:23:11.671Z,102722.19
2022-12-18T12:25:51.498Z,102718.06
2022-12-18T12:28:55.711Z,102711.38
2022-12-18T12:31:52.012Z,102702.22
2022-12-18T12:34:56.188Z,102705.81
2022-12-18T12:37:47.279Z,102693.19
2022-12-18T12:40:50.334Z,102690.75
2022-12-18T12:43:33.994Z,102689.19
2022-12-18T12:46:05.945Z,102682.34
2022-12-18T12:48:50.713Z,102680.81
2022-12-18T12:51:29.304Z,102681.97
2022-12-18T12:53:59.109Z,102676.94
2022-12-18T12:56:40.965Z,102660.78
2022-12-18T12:59:15.199Z,102662.63
2022-12-18T13:02:27.840Z,102656.56
2022-12-18T13:05:03.049Z,102641.19
2022-12-18T13:08:07.082Z,102647.25
2022-12-18T13:10:38.152Z,102621.28
2022-12-18T13:13:10.507Z,102628.16
2022-12-18T13:15:43.988Z,102615.38
2022-12-18T13:18:11.471Z,102616.28
2022-12-18T13:20:43.085Z,102606.69
2022-12-18T13:23:29.366Z,102600.63
2022-12-18T13:25:57.624Z,102604.25
2022-12-18T13:28:47.635Z,102606.84
2022-12-18T13:31:40.079Z,102605.16
2022-12-18T13:34:26.300Z,102597.53
2022-12-18T13:36:56.079Z,102590.56
2022-12-18T13:39:34.869Z,102582.03
2022-12-18T13:42:06.179Z,102574.41
2022-12-18T13:44:45.289Z,102574.28
2022-12-18T13:47:34.858Z,102577.66
2022-12-18T13:50:19.090Z,102585.16
2022-12-18T13:52:47.559Z,102583.31
2022-12-18T13:55:20.902Z,102583.22
2022-12-18T13:57:48.908Z,102586.69
2022-12-18T14:00:29.709Z,102578.69
2022-12-18T14:02:59.296Z,102582.06
2022-12-18T14:05:30.938Z,102580.25
2022-12-18T14:08:12.621Z,102568.00
2022-12-18T14:10:49.996Z,102569.41
2022-12-18T14:13:29.108Z,102563.97
2022-12-18T14:15:59.032Z,102558.81
2022-12-18T14:18:39.798Z,102555.34
2022-12-18T14:21:16.586Z,102547.59
2022-12-18T14:23:44.318Z,102550.84
2022-12-18T14:26:31.813Z,102548.00
2022-12-18T14:29:19.971Z,102554.69
2022-12-18T14:32:07.643Z,102547.72
2022-12-18T14:34:38.120Z,102552.88
2022-12-18T14:37:08.111Z,102542.19
2022-12-18T14:39:35.337Z,102547.34
2022-12-18T14:42:02.630Z,102548.00
2022-12-18T14:44:39.072Z,102531.59
2022-12-18T14:47:18.733Z,102527.84
2022-12-18T14:49:46.105Z,102528.38
2022-12-18T14:52:30.323Z,102527.47
2022-12-18T14:54:57.794Z,102522.19
2022-12-18T14:57:31.490Z,102516.00
2022-12-18T15:00:18.315Z,102514.22
2022-12-18T15:02:57.224Z,102510.69
2022-12-18T15:05:32.562Z,102503.88
2022-12-18T15:08:01.689Z,102514.97
2022-12-18T15:10:33.418Z,102505.41
2022-12-18T15:13:01.478Z,102510.56
2022-12-18T15:15:35.363Z,102499.50
2022-12-18T15:18:08.993Z,102508.78
2022-12-18T15:20:52.774Z,102508.78
2022-12-18T15:23:24.419Z,102513.94
2022-12-18T15:26:03.877Z,102512.13
2022-12-18T15:28:51.170Z,102491.47
2022-12-18T15:31:41.654Z,102493.31
2022-12-18T15:34:08.841Z,102502.72
2022-12-18T15:36:37.485Z,102489.69
2022-12-18T15:39:06.837Z,102481.16
2022-12-18T15:41:36.652Z,102480.25
2022-12-18T15:44:25.725Z,102478.72
2022-12-18T15:46:52.992Z,102471.88
2022-12-18T15:49:20.339Z,102458.88
2022-12-18T15:52:00.285Z,102439.13
2022-12-18T15:54:46.422Z,102444.16
2022-12-18T15:57:25.602Z,102439.78
2022-12-18T15:59:56.206Z,102430.34
2022-12-18T16:02:23.978Z,102403.75
2022-12-18T16:04:53.269Z,102408.91
2022-12-18T16:07:25.266Z,102394.38
2022-12-18T16:09:53.376Z,102400.41
2022-12-18T16:12:23.663Z,102390.09
2022-12-18T16:14:51.110Z,102384.03
2022-12-18T16:17:18.869Z,102365.06
2022-12-18T16:19:46.108Z,102367.63
2022-12-18T16:22:24.885Z,102357.44
2022-12-18T16:24:53.977Z,102352.28
2022-12-18T16:27:22.317Z,102344.53
2022-12-18T16:29:51.099Z,102350.59
2022-12-18T16:32:20.843Z,102350.59
2022-12-18T16:34:48.495Z,102343.00
2022-12-18T16:37:16.878Z,102336.19
2022-12-18T16:39:44.537Z,102329.47
2022-12-18T16:42:20.473Z,102332.13
2022-12-18T16:44:49.709Z,102320.16
2022-12-18T16:47:17.957Z,102335.63
2022-12-18T16:49:51.655Z,102333.19
2022-12-18T16:52:20.119Z,102331.63
2022-12-18T16:54:47.933Z,102330.06
2022-12-18T16:57:18.414Z,102333.69
2022-12-18T16:59:46.733Z,102317.31
2022-12-18T17:02:25.967Z,102326.81
2022-12-18T17:04:57.342Z,102331.22
2022-12-18T17:07:25.756Z,102320.91
2022-12-18T17:09:54.260Z,102328.66
2022-12-18T17:12:22.136Z,102315.75
2022-12-18T17:14:49.793Z,102305.41
2022-12-18T17:17:22.582Z,102284.78
2022-12-18T17:19:52.117Z,102285.66
2022-12-18T17:22:20.713Z,102264.91
2022-12-18T17:24:48.104Z,102282.19
2022-12-18T17:27:15.728Z,102276.22
2022-12-18T17:29:47.334Z,102280.63
2022-12-18T17:32:16.749Z,102275.47
2022-12-18T17:34:44.063Z,102282.41
2022-12-18T17:37:11.826Z,102281.66
2022-12-18T17:39:39.825Z,102285.25
2022-12-18T17:42:07.834Z,102285.25
2022-12-18T17:44:37.769Z,102281.88
2022-12-18T17:47:06.139Z,102287.03
2022-12-18T17:49:33.480Z,102274.25
2022-12-18T17:52:00.729Z,102265.75
2022-12-18T17:54:27.962Z,102258.13
2022-12-18T17:56:55.163Z,102253.06
2022-12-18T17:59:22.709Z,102253.19
2022-12-18T18:01:50.313Z,102254.22
2022-12-18T18:04:17.769Z,102245.69
2022-12-18T18:06:45.321Z,102231.09
2022-12-18T18:09:16.789Z,102241.56
2022-12-18T18:12:06.310Z,102229.66
2022-12-18T18:14:33.671Z,102222.03
2022-12-18T18:17:05.252Z,102226.41
2022-12-18T18:19:33.597Z,102217.91
2022-12-18T18:22:01.721Z,102218.91
2022-12-18T18:24:30.828Z,102217.47
2022-12-18T18:27:00.151Z,102214.88
2022-12-18T18:29:30.565Z,102215.91
2022-12-18T18:31:58.982Z,102206.47
2022-12-18T18:34:31.685Z,102214.34
2022-12-18T18:37:01.488Z,102208.41
2022-12-18T18:39:29.520Z,102206.84
2022-12-18T18:41:57.030Z,102219.88
2022-12-18T18:44:26.084Z,102222.56
2022-12-18T18:46:55.572Z,102213.16
2022-12-18T18:49:27.683Z,102203.72
2022-12-18T18:51:57.489Z,102217.50
2022-12-18T18:54:25.876Z,102208.19
2022-12-18T18:59:40.510Z,102191.25
2022-12-18T19:02:14.006Z,102188.66
2022-12-18T19:04:45.895Z,102190.50
2022-12-18T19:07:29.355Z,102194.97
2022-12-18T19:10:03.855Z,102195.09
2022-12-18T19:12:50.220Z,102196.09
2022-12-18T19:15:17.639Z,102198.81
2022-12-18T19:17:45.189Z,102207.47
2022-12-18T19:20:15.211Z,102198.00
2022-12-18T19:22:43.214Z,102201.63
2022-12-18T19:25:12.114Z,102208.59
2022-12-18T19:27:40.169Z,102196.56
2022-12-18T19:30:08.340Z,102191.53
2022-12-18T19:32:35.742Z,102195.91
2022-12-18T19:35:03.172Z,102189.06
2022-12-18T19:37:31.872Z,102187.38
2022-12-18T19:39:59.179Z,102188.25
2022-12-18T19:42:35.088Z,102191.66
2022-12-18T19:45:02.972Z,102187.38
2022-12-18T19:47:31.241Z,102180.50
2022-12-18T19:49:58.573Z,102184.91
2022-12-18T19:52:25.812Z,102186.69
2022-12-18T19:54:53.769Z,102190.31
2022-12-18T19:57:21.038Z,102193.00
2022-12-18T19:59:48.248Z,102188.75
2022-12-18T20:02:16.533Z,102179.19
2022-12-18T20:04:43.896Z,102164.69
2022-12-18T20:07:12.303Z,102160.41
2022-12-18T20:09:39.563Z,102157.81
2022-12-18T20:12:07.002Z,102152.00
2022-12-18T20:14:34.438Z,102139.97
2022-12-18T20:17:01.741Z,102144.38
2022-12-18T20:19:29.175Z,102146.28
2022-12-18T20:21:56.916Z,102142.91
2022-12-18T20:24:24.196Z,102131.00
2022-12-18T20:26:51.601Z,102136.19
2022-12-18T20:29:18.868Z,102135.50
2022-12-18T20:31:46.201Z,102132.22
2022-12-18T20:34:13.803Z,102134.94
2022-12-18T20:36:41.190Z,102128.06
2022-12-18T20:39:10.893Z,102131.66
2022-12-18T20:41:39.514Z,102119.78
2022-12-18T20:44:21.586Z,102119.09
2022-12-18T20:46:56.473Z,102118.28
2022-12-18T20:49:26.441Z,102115.06
2022-12-18T20:51:56.320Z,102113.47
2022-12-18T20:54:25.606Z,102119.78
2022-12-18T20:56:52.908Z,102109.63
2022-12-18T20:59:20.564Z,102114.16
2022-12-18T21:01:48.923Z,102117.75
2022-12-18T21:04:19.306Z,102114.47
2022-12-18T21:06:52.414Z,102110.19
2022-12-18T21:09:23.590Z,102113.81
2022-12-18T21:12:10.884Z,102104.47
2022-12-18T21:14:42.930Z,102110.66
2022-12-18T21:17:10.780Z,102106.47
2022-12-18T21:19:38.191Z,102113.44
2022-12-18T21:22:05.953Z,102113.56
2022-12-18T21:24:33.882Z,102109.38
2022-12-18T21:27:02.065Z,102109.50
2022-12-18T21:29:29.545Z,102111.31
2022-12-18T21:31:56.869Z,102100.28
2022-12-18T21:34:27.765Z,102094.22
2022-12-18T21:36:57.577Z,102084.00
2022-12-18T21:39:25.859Z,102080.59
2022-12-18T21:42:11.753Z,102077.22
2022-12-18T21:44:42.267Z,102076.44
2022-12-18T21:47:21.656Z,102075.66
2022-12-18T21:49:51.592Z,102071.38
2022-12-18T21:52:19.353Z,102056.72
2022-12-18T21:54:47.309Z,102055.97
2022-12-18T21:57:14.851Z,102058.66
2022-12-18T21:59:43.727Z,102060.44
2022-12-18T22:02:20.120Z,102054.50
2022-12-18T22:04:48.282Z,102045.16
2022-12-18T22:07:16.557Z,102044.34
2022-12-18T22:09:43.963Z,102037.59
2022-12-18T22:12:13.865Z,102036.81
2022-12-18T22:14:41.051Z,102048.16
2022-12-18T22:17:09.800Z,102042.19
2022-12-18T22:19:42.881Z,102043.22
2022-12-18T22:22:10.867Z,102039.81
2022-12-18T22:24:38.374Z,102040.03
2022-12-18T22:27:06.613Z,102032.38
2022-12-18T22:29:52.649Z,102036.84
2022-12-18T22:32:20.666Z,102024.91
2022-12-18T22:35:08.296Z,102014.78
2022-12-18T22:37:37.041Z,102023.56
2022-12-18T22:40:07.295Z,102017.56
2022-12-18T22:42:34.806Z,102017.78
2022-12-18T22:45:02.228Z,102011.03
2022-12-18T22:47:30.642Z,102001.69
2022-12-18T22:49:58.526Z,102006.97
2022-12-18T22:52:25.939Z,102007.97
2022-12-18T22:54:54.256Z,102001.19
2022-12-18T22:57:23.342Z,101996.13
2022-12-18T22:59:51.732Z,101998.72
2022-12-18T23:02:19.561Z,102009.06
2022-12-18T23:04:50.506Z,101992.75
2022-12-18T23:07:18.365Z,101991.84
2022-12-18T23:09:45.643Z,101992.66
2022-12-18T23:12:16.851Z,101988.38
2022-12-18T23:14:44.525Z,101984.88
2022-12-18T23:17:11.733Z,101963.25
2022-12-18T23:19:42.816Z,101961.59
2022-12-18T23:22:12.919Z,101949.44
2022-12-18T23:24:40.627Z,101955.50
2022-12-18T23:27:11.526Z,101953.81
2022-12-18T23:29:40.680Z,101939.19
2022-12-18T23:32:08.492Z,101937.47
2022-12-18T23:34:35.780Z,101938.41
2022-12-18T23:37:03.987Z,101935.88
2022-12-18T23:39:31.462Z,101926.47
2022-12-18T23:41:59.453Z,101929.94
2022-12-18T23:44:27.216Z,101924.88
2022-12-18T23:46:54.921Z,101911.94
2022-12-18T23:49:22.622Z,101914.50
2022-12-18T23:51:50.055Z,101912.91
2022-12-18T23:54:17.377Z,101909.53
2022-12-18T23:56:49.822Z,101916.50
2022-12-18T23:59:19.369Z,101913.09
